Latest Weather Observations for Newcastle Nobbys

IDN60801

Issued at 10:12 pm EDT Thursday 21 November 2019 (issued every 10 minutes, with the page automatically refreshed every 10 minutes)

About weather observations | Map of weather stations | Latest weather observations for NSW | Other Formats
Station Details ID: 061055 Name: NEWCASTLE NOBBYS SIGNAL STATION AWS Lat: -32.92 Lon: 151.80 Height: 33.0 m
Data from the previous 72 hours. | See also: Recent months at Newcastle Nobbys
Date/Time
EDT
Temp
°C
App
Temp
°C
Dew
Point
°C
Rel
Hum
%
Delta-T
°C
Wind Press
QNH
hPa
Press
MSL
hPa
Rain since
9am
mm
Dir  Spd
km/h
Gust
km/h
Spd
kts
Gust
kts
21/10:00pm 22.8 22.7 19.6 82 2.0 NE 19 26 10 14 - - 0.0
21/09:30pm 22.8 22.7 19.6 82 2.0 NE 19 24 10 13 - - 0.0
21/09:00pm 23.1 23.0 19.9 82 2.1 NE 20 28 11 15 - - 0.0
21/08:30pm 23.1 23.6 20.1 83 1.9 NE 17 28 9 15 - - 0.0
21/08:00pm 23.0 22.6 20.1 84 1.9 NE 22 30 12 16 - - 0.0
21/07:30pm 22.8 23.1 20.3 86 1.6 ENE 19 24 10 13 - - 0.0
21/07:00pm 22.9 22.5 20.2 85 1.7 ENE 22 30 12 16 - - 0.0
21/06:30pm 23.0 22.5 20.0 83 1.9 ENE 22 30 12 16 - - 0.0
21/06:00pm 22.8 22.0 20.1 85 1.7 ENE 24 30 13 16 - - 0.0
21/05:30pm 22.8 21.2 20.1 85 1.7 ENE 28 35 15 19 - - 0.0
21/05:00pm 22.6 20.9 19.9 85 1.7 ENE 28 35 15 19 - - 0.0
21/04:30pm 22.7 20.3 20.0 85 1.7 ENE 32 37 17 20 - - 0.0
21/04:00pm 22.8 20.5 20.1 85 1.7 ENE 32 35 17 19 - - 0.0
21/03:30pm 23.0 20.6 20.3 85 1.7 ENE 33 39 18 21 - - 0.0
21/03:00pm 22.7 20.9 20.4 87 1.5 E 30 37 16 20 - - 0.0
21/02:30pm 22.8 20.4 20.3 86 1.6 ENE 33 41 18 22 - - 0.0
21/02:00pm 22.4 21.2 20.1 87 1.5 E 26 35 14 19 - - 0.0
21/01:30pm 22.3 21.5 20.0 87 1.5 E 24 32 13 17 - - 0.0
21/01:00pm 22.5 21.8 20.2 87 1.5 E 24 32 13 17 - - 0.0
21/12:30pm 22.4 21.9 19.9 86 1.6 E 22 28 12 15 - - 0.0
21/12:00pm 22.4 22.8 19.8 85 1.7 E 17 20 9 11 - - 0.0
21/11:30am 22.1 23.2 19.6 86 1.6 ESE 13 17 7 9 - - 0.0
21/11:00am 22.0 24.1 19.4 85 1.7 SE 7 9 4 5 - - 0.0
21/10:30am 23.2 24.6 19.6 80 2.3 ESE 11 13 6 7 - - 0.0
21/10:00am 23.6 26.0 20.1 81 2.3 ESE 7 9 4 5 - - 0.0
21/09:30am 22.4 24.6 19.6 84 1.8 SE 7 9 4 5 - - 0.0
21/09:00am 22.1 24.6 19.8 87 1.5 SE 6 7 3 4 - - 0.0
21/08:30am 20.7 22.7 18.8 89 1.2 SSE 6 7 3 4 - - 0.0
21/08:00am 20.5 22.9 18.8 90 1.1 S 4 6 2 3 - - 0.0
21/07:30am 20.3 22.1 18.8 91 0.9 SSW 7 9 4 5 - - 0.0
21/07:00am 19.9 21.3 18.7 93 0.8 S 9 9 5 5 - - 0.0
21/06:30am 19.3 20.9 18.3 94 0.6 SSE 7 9 4 5 - - 0.0
21/06:00am 19.1 21.2 18.1 94 0.6 SSW 4 6 2 3 - - 0.0
21/05:30am 19.1 21.6 18.1 94 0.6 WSW 2 6 1 3 - - 0.0
21/05:00am 19.1 19.9 18.1 94 0.6 S 11 13 6 7 - - 0.0
21/04:30am 19.2 19.6 18.2 94 0.6 S 13 15 7 8 - - 0.0
21/04:00am 19.2 18.8 18.0 93 0.7 S 17 20 9 11 - - 0.0
21/03:30am 19.4 20.2 18.2 93 0.7 SSW 11 15 6 8 - - 0.0
21/03:00am 19.4 20.2 18.2 93 0.7 SSW 11 13 6 7 - - 0.0
21/02:30am 19.3 20.1 18.1 93 0.7 SSW 11 13 6 7 - - 0.0
21/02:00am 19.6 21.3 18.6 94 0.6 SSW 7 11 4 6 - - 0.0
21/01:30am 19.6 20.5 18.4 93 0.7 SSW 11 15 6 8 - - 0.0
21/01:00am 19.7 20.6 18.4 92 0.8 SSW 11 13 6 7 - - 0.0
21/12:30am 19.8 21.1 18.5 92 0.8 SSW 9 15 5 8 - - 0.0
21/12:00am 19.9 21.3 18.6 92 0.8 SSW 9 11 5 6 - - 0.0
 
Date/Time
EDT
Temp
°C
App
Temp
°C
Dew
Point
°C
Rel
Hum
%
Delta-T
°C
Wind Press
QNH
hPa
Press
MSL
hPa
Rain since
9am
mm
Dir  Spd
km/h
Gust
km/h
Spd
kts
Gust
kts
20/11:30pm 20.1 21.1 18.6 91 0.9 SSW 11 13 6 7 - - 0.0
20/11:00pm 20.1 21.5 18.6 91 0.9 SSW 9 13 5 7 - - 0.0
20/10:30pm 20.2 21.3 18.9 92 0.8 SSW 11 15 6 8 - - 0.0
20/10:00pm 20.2 20.1 18.7 91 0.9 S 17 19 9 10 - - 0.0
20/09:30pm 20.1 21.0 18.4 90 1.1 S 11 13 6 7 - - 0.0
20/09:00pm 20.1 21.4 18.4 90 1.1 S 9 11 5 6 - - 0.0
20/08:30pm 20.1 20.9 18.2 89 1.2 S 11 13 6 7 - - 0.0
20/08:00pm 20.1 20.0 17.9 87 1.4 S 15 19 8 10 - - 0.0
20/07:30pm 20.1 18.9 17.5 85 1.6 S 20 24 11 13 - - 0.0
20/07:00pm 20.1 18.9 17.5 85 1.6 SSE 20 22 11 12 - - 0.0
20/06:30pm 20.4 19.3 17.2 82 2.0 SSE 19 20 10 11 - - 0.0
20/06:00pm 20.6 19.3 17.2 81 2.1 SE 20 22 11 12 - - 0.0
20/05:30pm 20.9 19.2 17.1 79 2.3 SE 22 24 12 13 - - 0.0
20/05:00pm 20.9 19.3 16.5 76 2.7 SSE 20 24 11 13 - - 0.0
20/04:30pm 21.0 19.3 16.2 74 2.9 SSE 20 26 11 14 - - 0.0
20/04:00pm 21.0 18.5 16.2 74 2.9 SSE 24 28 13 15 - - 0.0
20/03:30pm 21.0 18.1 16.2 74 2.9 SSE 26 30 14 16 - - 0.0
20/03:00pm 21.1 17.8 16.1 73 3.0 SSE 28 32 15 17 - - 0.0
20/02:30pm 20.9 17.7 15.4 71 3.3 SSE 26 30 14 16 - - 0.0
20/02:00pm 21.3 18.0 16.0 72 3.2 SSE 28 30 15 16 - - 0.0
20/01:30pm 20.9 17.7 15.4 71 3.3 SSE 26 30 14 16 - - 0.0
20/01:00pm 20.9 17.5 15.7 72 3.1 SSE 28 32 15 17 - - 0.0
20/12:30pm 20.6 17.1 15.4 72 3.1 SSE 28 33 15 18 - - 0.0
20/12:00pm 20.8 16.8 15.1 70 3.4 S 30 33 16 18 - - 0.0
20/11:30am 20.9 17.4 15.4 71 3.3 S 28 32 15 17 - - 0.0
20/11:00am 20.2 16.3 15.4 74 2.8 S 30 33 16 18 - - 0.0
20/10:30am 20.5 16.7 15.7 74 2.9 S 30 35 16 19 - - 0.0
20/10:00am 20.2 15.8 15.2 73 3.0 S 32 35 17 19 - - 0.0
20/09:30am 20.0 15.6 15.2 74 2.8 S 32 35 17 19 - - 0.0
20/09:00am 20.0 15.4 14.6 71 3.2 S 32 37 17 20 - - 0.0
20/08:30am 19.6 15.3 15.5 77 2.4 S 32 39 17 21 - - 0.0
20/08:00am 19.5 15.7 15.8 79 2.2 S 30 37 16 20 - - 0.0
20/07:30am 19.3 16.2 15.6 79 2.2 SSW 26 35 14 19 - - 0.0
20/07:00am 19.2 15.8 15.7 80 2.1 SSW 28 37 15 20 - - 0.0
20/06:30am 19.4 16.2 16.2 82 1.9 SSW 28 39 15 21 - - 0.0
20/06:00am 19.3 16.1 16.2 82 1.9 SSW 28 41 15 22 - - 0.0
20/05:30am 19.1 15.4 16.0 82 1.8 SSW 30 41 16 22 - - 0.0
20/05:00am 19.3 15.3 16.7 85 1.6 SSW 33 44 18 24 - - 0.0
20/04:30am 19.2 15.1 16.4 84 1.7 SSW 33 46 18 25 - - 0.0
20/04:00am 19.2 14.7 16.4 84 1.7 SSW 35 48 19 26 - - 0.0
20/03:30am 19.3 15.1 17.1 87 1.3 SSW 35 50 19 27 - - 0.0
20/03:00am 19.6 16.0 17.7 89 1.2 SSW 33 44 18 24 - - 0.0
20/02:30am 20.1 15.8 17.7 86 1.5 SSW 37 52 20 28 - - 0.0
20/02:00am 19.9 16.1 18.0 89 1.2 SSW 35 50 19 27 - - 0.0
20/01:30am 20.1 16.5 18.6 91 0.9 SSW 35 50 19 27 - - 0.0
20/01:29am 20.1 16.5 18.6 91 0.9 SSW 35 54 19 29 - - 0.0
20/01:00am 20.2 16.0 19.0 93 0.8 SSW 39 54 21 29 - - 0.0
20/12:30am 20.4 16.2 19.7 96 0.4 SSW 41 54 22 29 - - 0.0
20/12:00am 20.5 16.3 19.7 95 0.5 SSW 41 56 22 30 - - 0.0
 
Date/Time
EDT
Temp
°C
App
Temp
°C
Dew
Point
°C
Rel
Hum
%
Delta-T
°C
Wind Press
QNH
hPa
Press
MSL
hPa
Rain since
9am
mm
Dir  Spd
km/h
Gust
km/h
Spd
kts
Gust
kts
19/11:44pm 20.4 17.6 19.4 94 0.6 SSW 33 54 18 29 - - 0.0
19/11:30pm 20.6 17.3 19.3 92 0.8 SSW 35 48 19 26 - - 0.0
19/11:19pm 20.9 17.8 18.8 88 1.3 SSW 33 52 18 28 - - 0.0
19/11:00pm 22.4 17.9 14.8 62 4.5 SSW 32 43 17 23 - - 0.0
19/10:44pm 22.9 18.9 13.1 54 5.6 SSW 26 46 14 25 - - 0.0
19/10:30pm 22.0 22.0 14.1 61 4.6 S 7 9 4 5 - - 0.0
19/10:00pm 22.8 21.8 12.4 52 5.9 NNE 9 13 5 7 - - 0.0
19/09:30pm 23.7 22.7 11.1 45 7.0 NE 7 13 4 7 - - 0.0
19/09:00pm 23.0 21.4 11.7 49 6.4 ENE 11 15 6 8 - - 0.0
19/08:30pm 23.9 21.8 11.3 45 7.1 NE 13 19 7 10 - - 0.0
19/08:00pm 23.4 20.3 13.3 53 5.9 NE 22 28 12 15 - - 0.0
19/07:30pm 23.7 21.1 13.3 52 6.0 ENE 19 26 10 14 - - 0.0
19/07:00pm 23.9 21.1 12.5 49 6.5 ENE 19 26 10 14 - - 0.0
19/06:30pm 24.0 21.6 13.8 53 6.0 NE 19 26 10 14 - - 0.0
19/06:00pm 24.3 21.5 12.6 48 6.7 ENE 19 28 10 15 - - 0.0
19/05:30pm 24.1 21.2 13.0 50 6.4 NE 20 33 11 18 - - 0.0
19/05:00pm 24.1 22.0 13.6 52 6.1 ENE 17 26 9 14 - - 0.0
19/04:30pm 24.6 21.2 12.5 46 7.0 ENE 22 28 12 15 - - 0.0
19/04:00pm 24.4 22.3 14.8 55 5.7 ENE 19 24 10 13 - - 0.0
19/03:30pm 24.9 21.0 12.2 45 7.3 ESE 24 28 13 15 - - 0.0
19/03:00pm 25.3 21.3 11.8 43 7.7 E 24 28 13 15 - - 0.0
19/02:30pm 25.8 21.8 10.4 38 8.6 E 22 26 12 14 - - 0.0
19/02:00pm 26.3 22.3 10.5 37 8.9 E 22 24 12 13 - - 0.0
19/01:30pm 26.8 22.6 9.6 34 9.5 E 22 24 12 13 - - 0.0
19/01:00pm 28.1 23.2 6.8 26 11.3 E 22 24 12 13 - - 0.0
19/12:30pm 30.1 26.1 6.7 23 12.5 E 17 19 9 10 - - 0.0
19/12:00pm 30.0 27.0 7.8 25 12.1 ENE 13 15 7 8 - - 0.0
19/11:30am 30.4 28.7 7.6 24 12.4 SE 6 7 3 4 - - 0.0
19/11:00am 29.6 27.2 6.9 24 12.2 NW 9 15 5 8 - - 0.0
19/10:30am 28.4 24.9 3.3 20 12.6 NNW 11 19 6 10 - - 0.0
19/10:00am 27.4 23.3 6.2 26 11.1 NW 17 24 9 13 - - 0.0
19/09:30am 27.1 22.7 6.5 27 10.8 NW 19 26 10 14 - - 0.0
19/09:00am 26.0 21.6 7.6 31 9.8 WNW 20 24 11 13 - - 0.0
19/08:30am 24.7 19.7 6.4 31 9.5 WNW 22 28 12 15 - - 0.0
19/08:00am 23.0 19.2 7.5 37 8.1 WNW 17 24 9 13 - - 0.0
19/07:30am 20.6 17.9 10.4 52 5.5 WNW 15 20 8 11 - - 0.0
19/07:00am 18.4 16.7 12.6 69 3.2 WNW 13 17 7 9 - - 0.0
19/06:30am 17.8 16.0 13.3 75 2.5 WNW 15 19 8 10 - - 0.0
19/06:00am 17.5 16.5 13.4 77 2.3 WNW 11 17 6 9 - - 0.0
19/05:30am 17.5 16.6 13.8 79 2.1 WNW 11 13 6 7 - - 0.0
19/05:00am 17.4 15.7 13.7 79 2.1 WNW 15 17 8 9 - - 0.0
19/04:30am 17.6 16.3 13.7 78 2.2 WNW 13 15 7 8 - - 0.0
19/04:00am 17.5 16.0 14.2 81 1.9 WNW 15 17 8 9 - - 0.0
19/03:30am 17.0 16.4 14.5 85 1.4 WNW 11 15 6 8 - - 0.0
19/03:00am 17.1 16.7 14.2 83 1.7 NW 9 11 5 6 - - 0.0
19/02:30am 18.5 18.6 15.4 82 1.8 NNW 9 13 5 7 - - 0.0
19/02:00am 19.0 19.5 14.9 77 2.4 NW 6 7 3 4 - - 0.0
19/01:30am 19.3 19.1 14.6 74 2.7 WNW 9 13 5 7 - - 0.0
19/01:00am 19.7 21.2 15.6 77 2.4 N 2 4 1 2 - - 0.0
19/12:30am 20.1 21.4 14.2 69 3.4 CALM 0 2 0 1 - - 0.0
19/12:00am 19.9 20.8 14.0 69 3.4 WNW 2 4 1 2 - - 0.0
 
Date/Time
EDT
Temp
°C
App
Temp
°C
Dew
Point
°C
Rel
Hum
%
Delta-T
°C
Wind Press
QNH
hPa
Press
MSL
hPa
Rain since
9am
mm
Dir  Spd
km/h
Gust
km/h
Spd
kts
Gust
kts
18/11:30pm 20.2 19.7 14.8 71 3.2 NNW 11 13 6 7 - - 0.0
18/11:00pm 20.1 19.5 14.7 71 3.2 N 11 15 6 8 - - 0.0
18/10:30pm 20.4 18.8 15.0 71 3.2 NNE 17 19 9 10 - - 0.0

Other formats

Comma delimited format used in spreadsheet applications
http://www.bom.gov.au/fwo/IDN60801/IDN60801.94774.axf

JavaScript Object Notation format (JSON) in row-major order
http://www.bom.gov.au/fwo/IDN60801/IDN60801.94774.json

Data quality

Most of these data are generated automatically and are frequently updated. Quality checks on data are not normally performed. It is possible for incorrect values to appear. Refer to information at About Latest Weather Observations and please check the disclaimer before using these data.